Time;durP1;ratioP1;P1;durP2;ratioP2;P2;SDS_P1;SDS_P2;PMS_P1;PMS_P2;Temp;Humidity;BMP_temperature;BMP_pressure;BME280_temperature;BME280_humidity;BME280_pressure;Samples;Min_cycle;Max_cycle;Signal;HPM_P1;HPM_P2
2021/10/20 00:01:45;;;;;;;9.00;4.67;;;;;;;14.97;100.00;-19555.78;5091687;27;20056;-71
2021/10/20 00:04:11;;;;;;;9.37;4.90;;;;;;;14.85;100.00;-19552.75;5090098;27;20035;-71
2021/10/20 00:06:36;;;;;;;10.47;5.23;;;;;;;15.00;100.00;-19556.44;5097653;27;20074;-72
2021/10/20 00:09:03;;;;;;;9.87;5.53;;;;;;;14.92;100.00;-19554.47;5093297;28;20046;-71
2021/10/20 00:11:29;;;;;;;11.90;4.90;;;;;;;14.88;100.00;-19553.53;5083324;28;20358;-71
2021/10/20 00:13:54;;;;;;;10.13;5.20;;;;;;;14.91;100.00;-19554.19;5088813;27;20454;-71
2021/10/20 00:16:20;;;;;;;9.33;4.70;;;;;;;14.95;100.00;-19555.38;5086137;27;20081;-71
2021/10/20 00:18:49;;;;;;;10.37;4.90;;;;;;;14.94;100.00;-19555.00;5093608;27;20030;-71
2021/10/20 00:21:23;;;;;;;9.37;4.83;;;;;;;14.88;100.00;-19553.41;5111459;27;20291;-71
2021/10/20 00:23:49;;;;;;;9.50;5.07;;;;;;;14.87;100.00;-19553.16;5098126;27;20322;-71
2021/10/20 00:26:15;;;;;;;10.60;5.00;;;;;;;14.97;100.00;-19555.78;5097260;27;20548;-71
2021/10/20 00:28:40;;;;;;;10.20;5.13;;;;;;;14.83;100.00;-19552.09;5101455;27;20031;-71
2021/10/20 00:31:06;;;;;;;9.93;4.90;;;;;;;14.81;100.00;-19551.59;5099257;27;20024;-71
2021/10/20 00:33:31;;;;;;;9.30;4.93;;;;;;;14.88;100.00;-19553.41;5092346;27;20031;-72
2021/10/20 00:35:57;;;;;;;9.23;4.70;;;;;;;14.82;100.00;-19551.84;5099198;27;20016;-72
2021/10/20 00:38:22;;;;;;;8.37;4.43;;;;;;;14.81;100.00;-19551.59;5090524;27;20034;-71
2021/10/20 00:40:51;;;;;;;8.47;4.23;;;;;;;14.91;100.00;-19554.19;5096437;27;20016;-71
2021/10/20 00:43:20;;;;;;;9.90;4.57;;;;;;;14.86;100.00;-19552.88;5094120;27;20558;-71
2021/10/20 00:45:46;;;;;;;9.57;4.67;;;;;;;14.78;100.00;-19550.78;5083587;28;20588;-72
2021/10/20 00:48:11;;;;;;;9.10;4.60;;;;;;;14.88;100.00;-19553.41;5091617;27;20116;-71
2021/10/20 00:50:37;;;;;;;8.77;4.40;;;;;;;14.82;100.00;-19551.84;5096257;27;20380;-71
2021/10/20 00:53:03;;;;;;;8.17;4.30;;;;;;;14.84;100.00;-19552.38;5088275;27;20023;-71
2021/10/20 00:55:29;;;;;;;10.40;4.43;;;;;;;14.80;100.00;-19551.44;5097268;27;20076;-71
2021/10/20 00:57:55;;;;;;;9.77;4.00;;;;;;;14.90;100.00;-19554.06;5094494;27;20027;-71
2021/10/20 01:00:20;;;;;;;8.20;4.20;;;;;;;14.98;100.00;-19555.91;5092833;27;20427;-71
2021/10/20 01:02:47;;;;;;;7.47;3.77;;;;;;;14.93;100.00;-19554.72;5090653;27;20043;-71
2021/10/20 01:05:13;;;;;;;7.80;4.17;;;;;;;14.78;100.00;-19550.94;5109274;22;20108;-69
2021/10/20 01:07:40;;;;;;;8.63;4.00;;;;;;;14.82;100.00;-19551.84;5096365;28;20127;-69
2021/10/20 01:10:07;;;;;;;6.70;3.57;;;;;;;15.01;100.00;-19556.81;5100675;28;20498;-69
2021/10/20 01:12:34;;;;;;;8.17;3.63;;;;;;;15.01;100.00;-19556.69;5100481;28;20027;-69
2021/10/20 01:15:01;;;;;;;10.90;4.03;;;;;;;14.91;100.00;-19554.19;5096030;28;20016;-70
2021/10/20 01:17:27;;;;;;;8.40;3.37;;;;;;;14.99;100.00;-19556.28;5101489;28;20084;-69
2021/10/20 01:19:53;;;;;;;7.50;4.13;;;;;;;14.94;100.00;-19555.00;5094327;28;20027;-70
2021/10/20 01:22:18;;;;;;;7.93;4.10;;;;;;;14.92;100.00;-19554.47;5100190;28;20548;-69
2021/10/20 01:24:44;;;;;;;7.03;3.53;;;;;;;14.86;100.00;-19553.03;5095143;28;20047;-69
2021/10/20 01:27:10;;;;;;;9.07;3.17;;;;;;;14.99;100.00;-19556.28;5096841;28;20028;-69
2021/10/20 01:29:35;;;;;;;8.97;3.70;;;;;;;14.97;100.00;-19555.78;5100815;28;20046;-70
2021/10/20 01:32:05;;;;;;;6.57;3.60;;;;;;;14.95;100.00;-19555.25;5100297;28;20034;-69
2021/10/20 01:34:30;;;;;;;7.53;4.00;;;;;;;14.89;100.00;-19553.81;5098546;28;20681;-69
2021/10/20 01:37:00;;;;;;;7.90;3.40;;;;;;;14.88;100.00;-19553.53;5087910;28;20228;-69
2021/10/20 01:39:25;;;;;;;7.47;3.50;;;;;;;14.89;100.00;-19553.69;5098665;27;20138;-69
2021/10/20 01:41:51;;;;;;;6.97;3.27;;;;;;;14.90;100.00;-19553.94;5104266;27;20040;-69
2021/10/20 01:44:16;;;;;;;12.47;3.17;;;;;;;14.82;100.00;-19551.84;5100215;28;20076;-69
2021/10/20 01:46:42;;;;;;;7.03;3.30;;;;;;;14.88;100.00;-19553.41;5099924;28;20422;-69
2021/10/20 01:49:08;;;;;;;6.67;3.40;;;;;;;14.94;100.00;-19555.00;5097461;27;20311;-69
2021/10/20 01:51:33;;;;;;;6.30;3.70;;;;;;;14.97;100.00;-19555.78;5102687;27;20023;-69
2021/10/20 01:53:59;;;;;;;6.80;3.60;;;;;;;14.91;100.00;-19554.19;5100737;28;20031;-69
2021/10/20 01:56:25;;;;;;;6.33;3.20;;;;;;;14.92;100.00;-19554.47;5098867;28;20368;-69
2021/10/20 01:58:50;;;;;;;8.97;3.80;;;;;;;14.79;100.00;-19551.19;5099084;28;20097;-69
2021/10/20 02:01:16;;;;;;;8.07;3.30;;;;;;;14.75;100.00;-19550.00;5101117;28;20019;-69
2021/10/20 02:03:41;;;;;;;7.70;3.83;;;;;;;14.68;100.00;-19548.19;5095302;28;20245;-69
2021/10/20 02:06:10;;;;;;;6.43;3.33;;;;;;;14.60;100.00;-19546.22;5078274;28;20035;-69
2021/10/20 02:08:36;;;;;;;7.83;3.40;;;;;;;14.81;100.00;-19551.72;5068422;28;20138;-69
2021/10/20 02:11:01;;;;;;;6.33;3.60;;;;;;;14.72;100.00;-19549.22;5074904;28;20241;-69
2021/10/20 02:13:27;;;;;;;6.17;3.07;;;;;;;14.77;100.00;-19550.66;5069053;28;20233;-69
2021/10/20 02:15:53;;;;;;;8.13;3.90;;;;;;;14.78;100.00;-19550.78;5073457;28;20501;-69
2021/10/20 02:18:19;;;;;;;7.07;3.47;;;;;;;14.74;100.00;-19549.75;5070436;28;20394;-69
2021/10/20 02:20:45;;;;;;;7.03;3.03;;;;;;;14.77;100.00;-19550.53;5066778;28;20016;-69
2021/10/20 02:23:11;;;;;;;5.57;2.90;;;;;;;14.89;100.00;-19553.69;5074881;28;20188;-69
2021/10/20 02:25:36;;;;;;;7.50;3.17;;;;;;;14.82;100.00;-19551.84;5071892;28;20143;-69
2021/10/20 02:28:02;;;;;;;6.53;3.73;;;;;;;14.74;100.00;-19549.88;5078585;28;20075;-69
2021/10/20 02:30:27;;;;;;;4.90;2.40;;;;;;;14.81;100.00;-19551.59;5072656;28;20180;-69
2021/10/20 02:32:54;;;;;;;7.87;3.53;;;;;;;14.79;100.00;-19551.19;5075258;28;20598;-69
2021/10/20 02:35:19;;;;;;;7.17;2.80;;;;;;;14.87;100.00;-19553.16;5075256;28;20027;-69
2021/10/20 02:37:45;;;;;;;6.87;2.80;;;;;;;14.77;100.00;-19550.53;5079160;28;20184;-69
2021/10/20 02:40:12;;;;;;;8.27;3.27;;;;;;;14.79;100.00;-19551.06;5074510;28;20480;-69
2021/10/20 02:42:39;;;;;;;6.47;3.03;;;;;;;14.79;100.00;-19551.06;5073369;28;20038;-69
2021/10/20 02:45:07;;;;;;;6.80;2.90;;;;;;;14.82;100.00;-19551.84;5072442;28;20028;-69
2021/10/20 02:47:33;;;;;;;7.10;3.43;;;;;;;14.76;100.00;-19550.41;5072201;28;20020;-69
2021/10/20 02:49:58;;;;;;;5.60;2.77;;;;;;;14.91;100.00;-19554.19;5074729;28;20020;-68
2021/10/20 02:52:26;;;;;;;5.57;2.67;;;;;;;14.90;100.00;-19553.94;5074463;28;20020;-69
2021/10/20 02:54:52;;;;;;;6.37;2.87;;;;;;;14.87;100.00;-19553.16;5078979;28;20032;-68
2021/10/20 02:57:17;;;;;;;6.10;2.63;;;;;;;14.90;100.00;-19554.06;5073049;28;20193;-69
2021/10/20 02:59:44;;;;;;;5.40;2.43;;;;;;;14.93;100.00;-19554.72;5077070;28;20043;-69
2021/10/20 03:02:09;;;;;;;5.10;2.70;;;;;;;14.91;100.00;-19554.34;5079908;28;20024;-69
2021/10/20 03:04:35;;;;;;;6.83;2.70;;;;;;;14.82;100.00;-19551.84;5076159;28;20036;-69
2021/10/20 03:07:00;;;;;;;5.93;2.90;;;;;;;14.77;100.00;-19550.66;5078403;28;20136;-68
2021/10/20 03:09:26;;;;;;;5.43;2.30;;;;;;;14.93;100.00;-19554.84;5074131;28;20305;-69
2021/10/20 03:11:51;;;;;;;5.53;2.80;;;;;;;14.89;100.00;-19553.69;5078314;28;20043;-69
2021/10/20 03:14:17;;;;;;;5.37;2.63;;;;;;;14.80;100.00;-19551.31;5077294;28;20438;-69
2021/10/20 03:16:42;;;;;;;6.50;2.67;;;;;;;14.84;100.00;-19552.38;5077848;28;20055;-69
2021/10/20 03:19:08;;;;;;;6.97;2.70;;;;;;;14.80;100.00;-19551.31;5076187;28;20154;-69
2021/10/20 03:21:33;;;;;;;5.73;2.83;;;;;;;14.82;100.00;-19551.84;5079091;28;20430;-69
2021/10/20 03:23:59;;;;;;;5.33;2.73;;;;;;;14.78;100.00;-19550.78;5074063;28;20059;-69
2021/10/20 03:26:24;;;;;;;10.00;3.10;;;;;;;14.77;100.00;-19550.53;5071137;28;20280;-69
2021/10/20 03:28:50;;;;;;;4.37;2.40;;;;;;;14.75;100.00;-19550.00;5071946;28;20036;-69
2021/10/20 03:31:17;;;;;;;5.13;2.60;;;;;;;14.71;100.00;-19548.97;5077866;28;20263;-69
2021/10/20 03:33:42;;;;;;;5.47;2.63;;;;;;;14.75;100.00;-19550.13;5077320;28;20044;-69
2021/10/20 03:36:09;;;;;;;7.83;2.60;;;;;;;14.82;100.00;-19551.84;5077919;28;20051;-69
2021/10/20 03:38:34;;;;;;;4.83;2.17;;;;;;;14.76;100.00;-19550.28;5078365;28;20162;-69
2021/10/20 03:41:00;;;;;;;5.17;2.50;;;;;;;14.75;100.00;-19550.13;5068350;28;20040;-69
2021/10/20 03:43:25;;;;;;;4.80;2.30;;;;;;;14.62;100.00;-19546.88;5077575;28;20416;-69
2021/10/20 03:45:51;;;;;;;5.23;2.20;;;;;;;14.88;100.00;-19553.53;5076087;28;20036;-69
2021/10/20 03:48:16;;;;;;;6.40;3.03;;;;;;;14.80;100.00;-19551.31;5078153;28;20044;-69
2021/10/20 03:50:42;;;;;;;4.93;2.20;;;;;;;14.78;100.00;-19550.78;5067585;28;20215;-69
2021/10/20 03:53:08;;;;;;;6.90;2.50;;;;;;;14.78;100.00;-19550.94;5077080;28;20028;-69
2021/10/20 03:55:33;;;;;;;5.13;2.43;;;;;;;14.74;100.00;-19549.75;5074921;28;20571;-69
2021/10/20 03:58:00;;;;;;;6.17;2.87;;;;;;;14.75;100.00;-19550.00;5077364;28;20032;-69
2021/10/20 04:00:26;;;;;;;5.23;2.27;;;;;;;14.86;100.00;-19553.03;5070598;28;20036;-69
2021/10/20 04:02:52;;;;;;;6.53;2.60;;;;;;;14.80;100.00;-19551.31;5078252;28;20172;-68
2021/10/20 04:05:19;;;;;;;6.53;2.73;;;;;;;14.78;100.00;-19550.78;5076506;28;20223;-69
2021/10/20 04:07:47;;;;;;;5.17;2.20;;;;;;;14.80;100.00;-19551.31;5077377;28;20050;-69
2021/10/20 04:10:15;;;;;;;5.07;2.50;;;;;;;14.91;100.00;-19554.34;5071566;28;20600;-69
2021/10/20 04:12:41;;;;;;;4.37;2.23;;;;;;;14.82;100.00;-19551.84;5066803;28;20111;-69
2021/10/20 04:15:07;;;;;;;5.53;2.20;;;;;;;14.88;100.00;-19553.41;5071060;28;20266;-69
2021/10/20 04:17:33;;;;;;;5.17;2.60;;;;;;;14.80;100.00;-19551.31;5077859;28;20032;-69
2021/10/20 04:19:58;;;;;;;5.57;2.53;;;;;;;14.85;100.00;-19552.63;5073820;28;20028;-69
2021/10/20 04:22:24;;;;;;;6.97;2.60;;;;;;;14.86;100.00;-19552.88;5077188;28;20507;-71
2021/10/20 04:24:49;;;;;;;5.57;2.63;;;;;;;14.93;100.00;-19554.72;5073424;28;20062;-69
2021/10/20 04:27:15;;;;;;;5.90;2.50;;;;;;;14.86;100.00;-19553.03;5076953;28;20495;-69
2021/10/20 04:29:40;;;;;;;6.03;2.33;;;;;;;14.84;100.00;-19552.38;5068439;28;20515;-69
2021/10/20 04:32:06;;;;;;;5.00;2.60;;;;;;;14.86;100.00;-19552.88;5072512;28;20034;-69
2021/10/20 04:34:32;;;;;;;6.73;2.57;;;;;;;14.82;100.00;-19551.84;5069651;28;20110;-69
2021/10/20 04:36:57;;;;;;;9.30;3.03;;;;;;;14.78;100.00;-19550.78;5068165;28;20453;-69
2021/10/20 04:39:23;;;;;;;4.67;2.10;;;;;;;14.77;100.00;-19550.53;5070939;28;20157;-69
2021/10/20 04:41:48;;;;;;;6.10;2.57;;;;;;;14.80;100.00;-19551.31;5069762;28;20039;-69
2021/10/20 04:44:14;;;;;;;5.37;2.30;;;;;;;14.73;100.00;-19549.63;5070883;28;20036;-69
2021/10/20 04:46:39;;;;;;;5.40;2.40;;;;;;;14.89;100.00;-19553.69;5070701;28;20043;-69
2021/10/20 04:49:05;;;;;;;5.33;2.70;;;;;;;14.81;100.00;-19551.59;5077968;28;20690;-69
2021/10/20 04:51:31;;;;;;;6.37;2.80;;;;;;;14.88;100.00;-19553.41;5083119;28;20180;-69
2021/10/20 04:53:56;;;;;;;6.37;2.80;;;;;;;14.82;100.00;-19551.84;5079398;28;20052;-69
2021/10/20 04:56:22;;;;;;;5.10;2.47;;;;;;;14.79;100.00;-19551.19;5080318;28;20460;-69
2021/10/20 04:58:47;;;;;;;6.20;2.80;;;;;;;14.75;100.00;-19550.00;5078231;28;20190;-69
2021/10/20 05:01:13;;;;;;;8.33;2.43;;;;;;;14.84;100.00;-19552.38;5079959;28;20283;-69
2021/10/20 05:03:38;;;;;;;6.90;2.77;;;;;;;14.83;100.00;-19552.09;5079472;28;20387;-69
2021/10/20 05:06:05;;;;;;;6.30;2.80;;;;;;;14.72;100.00;-19549.22;5075930;28;20166;-69
2021/10/20 05:08:30;;;;;;;6.53;2.53;;;;;;;14.76;100.00;-19550.28;5080996;28;20016;-69
2021/10/20 05:10:57;;;;;;;6.83;2.77;;;;;;;14.72;100.00;-19549.22;5080864;28;20020;-70
2021/10/20 05:13:23;;;;;;;6.77;3.27;;;;;;;14.72;100.00;-19549.22;5073437;28;20415;-69
2021/10/20 05:15:49;;;;;;;6.50;2.80;;;;;;;14.57;100.00;-19545.56;5075136;28;20012;-70
2021/10/20 05:18:14;;;;;;;5.57;2.80;;;;;;;14.70;100.00;-19548.69;5077352;28;20176;-70
2021/10/20 05:20:40;;;;;;;6.07;2.60;;;;;;;14.76;100.00;-19550.28;5074809;28;20487;-70
2021/10/20 05:23:05;;;;;;;6.27;2.60;;;;;;;14.76;100.00;-19550.28;5075987;28;20051;-69
2021/10/20 05:25:31;;;;;;;8.30;3.20;;;;;;;14.81;100.00;-19551.72;5078720;28;20518;-70
2021/10/20 05:27:57;;;;;;;7.13;2.87;;;;;;;14.72;100.00;-19549.34;5079532;28;20360;-70
2021/10/20 05:30:22;;;;;;;5.07;2.57;;;;;;;14.83;100.00;-19552.09;5075811;28;20040;-69
2021/10/20 05:32:48;;;;;;;7.30;2.60;;;;;;;14.78;100.00;-19550.94;5079990;28;20028;-70
2021/10/20 05:35:20;;;;;;;7.13;2.60;;;;;;;14.70;100.00;-19548.69;5076301;28;20099;-69
2021/10/20 05:37:50;;;;;;;;;;;;;;;14.84;100.00;-19552.38;5081087;28;20095;-70
2021/10/20 05:40:16;;;;;;;6.43;2.93;;;;;;;14.72;100.00;-19549.22;5078776;28;19919;-70
2021/10/20 05:42:42;;;;;;;7.20;3.10;;;;;;;14.68;100.00;-19548.31;5080371;28;20034;-70
2021/10/20 05:45:08;;;;;;;11.00;2.93;;;;;;;14.73;100.00;-19549.50;5078862;28;20028;-70
2021/10/20 05:47:34;;;;;;;7.67;3.20;;;;;;;14.71;100.00;-19548.97;5080162;28;20032;-69
2021/10/20 05:49:59;;;;;;;7.43;2.90;;;;;;;14.70;100.00;-19548.84;5088431;28;20042;-69
2021/10/20 05:52:25;;;;;;;6.63;3.37;;;;;;;14.70;100.00;-19548.69;5081145;28;20027;-69
2021/10/20 05:54:50;;;;;;;9.03;3.10;;;;;;;14.60;100.00;-19546.22;5068743;28;20185;-70
2021/10/20 05:57:16;;;;;;;7.70;2.70;;;;;;;14.66;100.00;-19547.78;5079039;28;20031;-70
2021/10/20 05:59:41;;;;;;;6.77;3.10;;;;;;;14.78;100.00;-19550.78;5078544;28;20181;-69
2021/10/20 06:02:11;;;;;;;6.87;3.50;;;;;;;14.63;100.00;-19547.13;5080151;28;20500;-70
2021/10/20 06:04:36;;;;;;;7.33;3.20;;;;;;;14.44;100.00;-19542.16;5070261;28;20531;-70
2021/10/20 06:07:02;;;;;;;9.33;3.40;;;;;;;14.44;100.00;-19542.03;5078184;28;20050;-70
2021/10/20 06:09:27;;;;;;;8.10;4.17;;;;;;;14.39;100.00;-19540.84;5072416;28;20127;-70
2021/10/20 06:11:54;;;;;;;7.43;3.43;;;;;;;14.48;100.00;-19543.19;5077831;28;20387;-70
2021/10/20 06:14:19;;;;;;;7.83;3.40;;;;;;;14.48;100.00;-19543.06;5073387;28;20043;-70
2021/10/20 06:16:45;;;;;;;11.03;3.10;;;;;;;14.32;100.00;-19539.00;5077573;28;20024;-70
2021/10/20 06:19:10;;;;;;;7.37;3.60;;;;;;;14.25;100.00;-19537.16;5074281;28;20039;-70
2021/10/20 06:21:36;;;;;;;7.67;2.93;;;;;;;14.29;100.00;-19538.34;5077098;28;20460;-69
2021/10/20 06:24:02;;;;;;;8.30;3.63;;;;;;;14.39;100.00;-19540.84;5075604;28;20035;-70
2021/10/20 06:26:28;;;;;;;7.13;3.30;;;;;;;14.40;100.00;-19541.09;5076570;28;20384;-70
2021/10/20 06:28:55;;;;;;;6.57;3.17;;;;;;;14.32;100.00;-19539.00;5077026;28;20673;-70
2021/10/20 06:31:20;;;;;;;8.73;4.20;;;;;;;14.36;100.00;-19540.06;5079291;28;20464;-70
2021/10/20 06:33:46;;;;;;;8.00;3.60;;;;;;;14.35;100.00;-19539.91;5077907;28;20028;-70
2021/10/20 06:36:32;;;;;;;5.93;2.77;;;;;;;14.58;100.00;-19545.81;5078264;28;20024;-70
2021/10/20 06:38:58;;;;;;;8.13;4.00;;;;;;;14.60;100.00;-19546.34;5077292;28;20467;-70
2021/10/20 06:41:24;;;;;;;8.70;3.47;;;;;;;14.52;100.00;-19544.13;5079857;28;20028;-70
2021/10/20 06:43:50;;;;;;;7.50;3.50;;;;;;;14.58;100.00;-19545.81;5078487;28;20425;-70
2021/10/20 06:46:15;;;;;;;6.97;3.37;;;;;;;14.52;100.00;-19544.25;5079083;28;20028;-70
2021/10/20 06:48:41;;;;;;;9.90;3.73;;;;;;;14.50;100.00;-19543.59;5078075;28;20407;-70
2021/10/20 06:51:07;;;;;;;7.17;3.33;;;;;;;14.54;100.00;-19544.66;5090035;28;20059;-70
2021/10/20 06:53:33;;;;;;;9.23;3.33;;;;;;;14.56;100.00;-19545.16;5079127;28;20028;-70
2021/10/20 06:56:01;;;;;;;8.70;3.50;;;;;;;14.47;100.00;-19542.94;5079353;28;20475;-70
2021/10/20 06:58:26;;;;;;;11.73;3.93;;;;;;;14.43;100.00;-19541.88;5079244;28;20122;-70
2021/10/20 07:00:52;;;;;;;7.40;3.47;;;;;;;14.54;100.00;-19544.78;5068294;28;20154;-70
2021/10/20 07:03:17;;;;;;;8.47;3.77;;;;;;;14.59;100.00;-19546.09;5078148;28;20024;-70
2021/10/20 07:05:43;;;;;;;7.33;3.40;;;;;;;14.58;100.00;-19545.69;5069238;28;20079;-70
2021/10/20 07:08:08;;;;;;;6.00;3.00;;;;;;;14.69;100.00;-19548.44;5078712;28;20500;-70
2021/10/20 07:10:36;;;;;;;6.97;2.97;;;;;;;14.73;100.00;-19549.50;5070450;28;20035;-70
2021/10/20 07:13:02;;;;;;;7.57;3.30;;;;;;;14.69;100.00;-19548.56;5078863;28;20071;-69
2021/10/20 07:15:27;;;;;;;7.07;3.43;;;;;;;14.75;100.00;-19550.13;5078182;28;20039;-69
2021/10/20 07:17:53;;;;;;;8.97;2.90;;;;;;;14.79;100.00;-19551.06;5078688;28;20028;-69
2021/10/20 07:20:18;;;;;;;7.40;3.50;;;;;;;14.83;100.00;-19552.09;5072140;28;20115;-69
2021/10/20 07:22:44;;;;;;;7.83;3.53;;;;;;;14.90;100.00;-19553.94;5078746;28;20250;-69
2021/10/20 07:25:11;;;;;;;7.80;3.13;;;;;;;14.92;100.00;-19554.47;5078382;28;20732;-69
2021/10/20 07:27:38;;;;;;;7.93;3.47;;;;;;;15.00;100.00;-19556.56;5078521;28;20039;-69
2021/10/20 07:30:06;;;;;;;6.40;3.40;;;;;;;15.06;100.00;-19558.00;5075126;28;20674;-69
2021/10/20 07:32:31;;;;;;;6.73;3.13;;;;;;;15.17;100.00;-19560.88;5078614;28;20051;-69
2021/10/20 07:34:57;;;;;;;8.10;3.23;;;;;;;15.24;100.00;-19562.84;5076154;28;20052;-69
2021/10/20 07:37:22;;;;;;;6.37;3.30;;;;;;;15.35;100.00;-19565.44;5078305;28;20068;-69
2021/10/20 07:39:48;;;;;;;7.17;3.17;;;;;;;15.42;100.00;-19567.41;5076129;28;20024;-70
2021/10/20 07:42:14;;;;;;;9.77;3.47;;;;;;;15.54;100.00;-19570.44;5078792;28;20050;-69
2021/10/20 07:44:39;;;;;;;7.47;3.47;;;;;;;15.61;100.00;-19572.25;5078325;28;20107;-69
2021/10/20 07:47:05;;;;;;;7.23;3.43;;;;;;;15.71;100.00;-19574.88;5078686;28;20464;-69
2021/10/20 07:49:30;;;;;;;8.37;3.43;;;;;;;15.82;100.00;-19577.75;5082243;28;20124;-70
2021/10/20 07:51:56;;;;;;;6.87;3.27;;;;;;;15.94;100.00;-19580.63;5083170;28;20476;-71
2021/10/20 07:54:25;;;;;;;6.37;3.40;;;;;;;15.97;100.00;-19581.41;5065424;28;20032;-71
2021/10/20 07:56:51;;;;;;;8.00;3.30;;;;;;;15.85;100.00;-19578.41;5074334;28;20036;-71
2021/10/20 07:59:17;;;;;;;13.13;4.13;;;;;;;15.78;100.00;-19576.72;5071910;28;20353;-71
2021/10/20 08:01:43;;;;;;;8.03;3.53;;;;;;;15.70;100.00;-19574.63;5073304;28;20024;-72
2021/10/20 08:04:08;;;;;;;8.97;3.70;;;;;;;15.70;100.00;-19574.63;5077479;28;20412;-71
2021/10/20 08:06:34;;;;;;;10.37;3.80;;;;;;;15.74;100.00;-19575.53;5078643;28;20024;-71
2021/10/20 08:08:59;;;;;;;9.00;3.47;;;;;;;15.75;100.00;-19575.94;5067835;28;20435;-72
2021/10/20 08:11:25;;;;;;;13.20;3.70;;;;;;;15.71;100.00;-19574.88;5072244;28;20300;-72
2021/10/20 08:13:51;;;;;;;8.37;3.60;;;;;;;15.69;100.00;-19574.34;5076153;28;20287;-69
2021/10/20 08:16:16;;;;;;;7.50;3.53;;;;;;;15.68;100.00;-19573.97;5076445;28;20031;-69
2021/10/20 08:18:41;;;;;;;8.37;3.60;;;;;;;15.66;100.00;-19573.56;5081043;28;20028;-70
2021/10/20 08:21:07;;;;;;;6.23;3.23;;;;;;;15.61;100.00;-19572.25;5075665;28;20039;-70
2021/10/20 08:23:33;;;;;;;7.77;3.37;;;;;;;15.66;100.00;-19573.44;5082065;28;20188;-69
2021/10/20 08:25:58;;;;;;;6.33;3.33;;;;;;;15.72;100.00;-19575.00;5081538;28;20474;-69
2021/10/20 08:28:24;;;;;;;6.80;3.63;;;;;;;15.66;100.00;-19573.44;5082014;28;20062;-69
2021/10/20 08:30:49;;;;;;;7.27;3.50;;;;;;;15.67;100.00;-19573.69;5077778;28;20031;-69
2021/10/20 08:33:16;;;;;;;9.43;3.63;;;;;;;15.67;100.00;-19573.84;5082098;28;20036;-71
2021/10/20 08:35:42;;;;;;;6.90;3.50;;;;;;;15.86;100.00;-19578.66;5079361;28;20444;-71
2021/10/20 08:38:08;;;;;;;7.70;3.63;;;;;;;15.86;100.00;-19578.53;5081973;28;20392;-71
2021/10/20 08:40:39;;;;;;;8.97;3.37;;;;;;;15.91;100.00;-19579.97;5079747;28;20024;-71
2021/10/20 08:43:05;;;;;;;7.40;3.53;;;;;;;15.99;100.00;-19581.94;5082355;28;20024;-72
2021/10/20 08:45:31;;;;;;;8.83;2.93;;;;;;;16.10;100.00;-19584.81;5081165;28;20032;-71
2021/10/20 08:47:58;;;;;;;6.27;3.10;;;;;;;16.11;100.00;-19585.06;5081538;28;20030;-71
2021/10/20 08:50:35;;;;;;;8.30;3.93;;;;;;;16.10;100.00;-19584.81;5069139;28;20216;-71
2021/10/20 08:53:01;;;;;;;6.83;3.40;;;;;;;16.15;100.00;-19586.13;5081574;28;20472;-71
2021/10/20 08:55:27;;;;;;;8.63;3.00;;;;;;;16.25;100.00;-19588.72;5068562;28;20032;-71
2021/10/20 08:57:54;;;;;;;5.57;2.57;;;;;;;16.42;100.00;-19593.19;5081643;28;20020;-69
2021/10/20 09:00:23;;;;;;;7.83;3.50;;;;;;;16.49;100.00;-19594.75;5069229;28;20447;-69
2021/10/20 09:02:49;;;;;;;7.50;2.90;;;;;;;16.61;100.00;-19597.88;5081549;28;20265;-69
2021/10/20 09:05:18;;;;;;;5.40;2.73;;;;;;;16.65;100.00;-19599.06;5070484;28;20290;-69
2021/10/20 09:07:45;;;;;;;7.37;3.60;;;;;;;16.61;100.00;-19597.88;5081403;28;20028;-69
2021/10/20 09:10:11;;;;;;;6.83;2.83;;;;;;;16.72;100.00;-19600.63;5071620;28;20063;-69
2021/10/20 09:12:37;;;;;;;6.73;3.23;;;;;;;16.77;100.00;-19601.94;5071715;28;20059;-69
2021/10/20 09:15:22;;;;;;;5.40;2.57;;;;;;;16.93;100.00;-19606.25;5069795;28;20062;-69
2021/10/20 09:18:10;;;;;;;6.40;3.13;;;;;;;17.19;100.00;-19612.78;5081250;28;20570;-69
2021/10/20 09:20:46;;;;;;;7.57;3.30;;;;;;;17.04;100.00;-19608.84;5073110;28;20072;-70
2021/10/20 09:23:21;;;;;;;6.50;2.90;;;;;;;16.93;100.00;-19606.25;5080774;28;20077;-69
2021/10/20 09:25:56;;;;;;;7.30;3.13;;;;;;;17.06;100.00;-19609.38;5073200;28;20161;-70
2021/10/20 09:28:33;;;;;;;8.43;2.73;;;;;;;17.38;100.00;-19617.72;5080775;28;20035;-70
2021/10/20 09:31:03;;;;;;;6.33;3.07;;;;;;;17.64;100.00;-19624.38;5080355;28;20537;-71
2021/10/20 09:33:37;;;;;;;6.10;2.73;;;;;;;17.58;100.00;-19622.81;5080587;28;20089;-70
2021/10/20 09:36:13;;;;;;;8.33;3.27;;;;;;;17.56;100.00;-19622.44;5080763;28;20350;-70
2021/10/20 09:38:45;;;;;;;5.47;2.77;;;;;;;17.42;100.00;-19618.78;5079826;28;20044;-70
2021/10/20 09:41:11;;;;;;;6.80;3.40;;;;;;;17.43;100.00;-19619.03;5067128;28;20276;-71
2021/10/20 09:43:53;;;;;;;6.07;2.73;;;;;;;17.46;100.00;-19619.81;5079781;28;20020;-70
2021/10/20 09:46:36;;;;;;;6.15;2.70;;;;;;;17.47;100.00;-19620.06;5078896;28;20107;-70
2021/10/20 09:49:12;;;;;;;6.40;3.30;;;;;;;17.64;100.00;-19624.38;5080136;28;20252;-70
2021/10/20 09:51:38;;;;;;;5.80;2.80;;;;;;;17.98;100.00;-19633.00;5088875;28;20464;-70
2021/10/20 09:54:25;;;;;;;5.77;2.93;;;;;;;18.04;100.00;-19634.69;5075897;28;20191;-70
2021/10/20 09:56:58;;;;;;;6.97;3.17;;;;;;;17.87;100.00;-19630.25;5075111;28;20035;-71
2021/10/20 09:59:25;;;;;;;6.73;3.17;;;;;;;17.86;100.00;-19630.00;5073041;28;20260;-70
2021/10/20 10:01:51;;;;;;;6.87;2.90;;;;;;;17.91;100.00;-19631.31;5075890;28;20266;-70
2021/10/20 10:04:17;;;;;;;7.13;2.90;;;;;;;18.06;100.00;-19635.22;5073742;28;20040;-70
2021/10/20 10:06:44;;;;;;;7.57;3.50;;;;;;;18.15;100.00;-19637.56;5075566;28;20025;-71
2021/10/20 10:09:10;;;;;;;7.37;2.93;;;;;;;18.09;100.00;-19636.00;5074533;28;20149;-70
2021/10/20 10:11:40;;;;;;;6.40;2.75;;;;;;;18.18;100.00;-19638.09;5074905;28;20268;-71
2021/10/20 10:14:08;;;;;;;7.43;2.97;;;;;;;18.03;100.00;-19634.28;5075231;28;20709;-70
2021/10/20 10:16:38;;;;;;;16.13;3.00;;;;;;;17.83;100.00;-19629.34;5075451;28;20534;-70
2021/10/20 10:19:04;;;;;;;6.10;2.97;;;;;;;17.81;100.00;-19628.69;5075275;28;20107;-70
2021/10/20 10:21:36;;;;;;;6.93;3.53;;;;;;;17.79;100.00;-19628.16;5075308;28;20028;-71
2021/10/20 10:24:08;;;;;;;6.10;2.97;;;;;;;17.76;100.00;-19627.38;5075302;28;20423;-71
2021/10/20 10:26:57;;;;;;;6.40;3.15;;;;;;;17.90;100.00;-19631.03;5077430;28;20069;-70
2021/10/20 10:29:23;;;;;;;4.90;2.60;;;;;;;17.82;100.00;-19628.97;5075835;28;20475;-71
2021/10/20 10:31:50;;;;;;;8.63;3.57;;;;;;;17.51;100.00;-19621.00;5079640;28;20028;-71
2021/10/20 10:34:25;;;;;;;8.00;3.27;;;;;;;17.20;100.00;-19613.03;5076286;28;20269;-71
2021/10/20 10:36:59;;;;;;;7.83;3.13;;;;;;;17.07;100.00;-19609.63;5070428;28;20035;-71
2021/10/20 10:39:29;;;;;;;5.77;2.73;;;;;;;16.99;100.00;-19607.81;5077446;28;20024;-70
2021/10/20 10:42:04;;;;;;;6.40;3.10;;;;;;;16.93;100.00;-19606.25;5079148;28;20024;-70
2021/10/20 10:44:49;;;;;;;7.20;3.53;;;;;;;16.89;100.00;-19605.06;5078168;28;20032;-70
2021/10/20 10:47:29;;;;;;;8.20;3.40;;;;;;;16.89;100.00;-19605.19;5079202;28;20062;-69
2021/10/20 10:49:57;;;;;;;7.60;3.50;;;;;;;17.02;100.00;-19608.34;5086771;28;20032;-69
2021/10/20 10:52:34;;;;;;;10.43;3.70;;;;;;;16.98;100.00;-19607.41;5080809;28;20031;-69
2021/10/20 10:55:18;;;;;;;6.43;2.87;;;;;;;17.03;100.00;-19608.72;5059665;28;20025;-69
2021/10/20 10:58:01;;;;;;;7.30;3.63;;;;;;;17.12;100.00;-19610.94;5067931;28;20363;-69
2021/10/20 11:00:34;;;;;;;6.00;2.90;;;;;;;17.21;100.00;-19613.44;5067739;28;20044;-69
2021/10/20 11:03:14;;;;;;;5.77;2.80;;;;;;;17.29;100.00;-19615.38;5079338;28;20447;-70
2021/10/20 11:05:48;;;;;;;5.93;3.23;;;;;;;17.27;100.00;-19615.00;5068339;28;20051;-70
2021/10/20 11:08:14;;;;;;;6.83;3.23;;;;;;;17.29;100.00;-19615.38;5079028;28;20313;-70
2021/10/20 11:10:43;;;;;;;8.03;3.13;;;;;;;17.28;100.00;-19615.25;5069925;28;20173;-70
2021/10/20 11:13:12;;;;;;;6.93;2.90;;;;;;;17.24;100.00;-19614.22;5078837;28;20771;-69
2021/10/20 11:15:38;;;;;;;8.67;4.13;;;;;;;17.25;100.00;-19614.34;5073011;28;20453;-70
2021/10/20 11:18:05;;;;;;;7.80;4.10;;;;;;;17.19;100.00;-19612.78;5079012;28;20066;-70